sensor_id;sensor_type;location;lat;lon;timestamp;P1;durP1;ratioP1;P2;durP2;ratioP2
8656;SDS011;4366;50.764;7.184;2023-03-21T00:04:24;5.63;;;2.30;;
8656;SDS011;4366;50.764;7.184;2023-03-21T00:09:31;3.83;;;2.30;;
8656;SDS011;4366;50.764;7.184;2023-03-21T00:14:33;3.40;;;2.63;;
8656;SDS011;4366;50.764;7.184;2023-03-21T00:19:35;2.30;;;2.10;;
8656;SDS011;4366;50.764;7.184;2023-03-21T00:24:38;3.30;;;2.43;;
8656;SDS011;4366;50.764;7.184;2023-03-21T00:29:40;3.50;;;2.27;;
8656;SDS011;4366;50.764;7.184;2023-03-21T00:34:43;3.63;;;2.20;;
8656;SDS011;4366;50.764;7.184;2023-03-21T00:40:06;3.40;;;2.40;;
8656;SDS011;4366;50.764;7.184;2023-03-21T00:45:23;8.03;;;2.93;;
8656;SDS011;4366;50.764;7.184;2023-03-21T00:50:27;5.17;;;3.20;;
8656;SDS011;4366;50.764;7.184;2023-03-21T00:55:28;3.77;;;2.50;;
8656;SDS011;4366;50.764;7.184;2023-03-21T01:00:30;2.83;;;2.47;;
8656;SDS011;4366;50.764;7.184;2023-03-21T01:05:34;6.07;;;2.70;;
8656;SDS011;4366;50.764;7.184;2023-03-21T01:10:59;5.13;;;2.60;;
8656;SDS011;4366;50.764;7.184;2023-03-21T01:16:03;6.77;;;2.70;;
8656;SDS011;4366;50.764;7.184;2023-03-21T01:21:10;3.53;;;2.40;;
8656;SDS011;4366;50.764;7.184;2023-03-21T01:26:14;5.97;;;2.60;;
8656;SDS011;4366;50.764;7.184;2023-03-21T01:31:17;4.57;;;2.60;;
8656;SDS011;4366;50.764;7.184;2023-03-21T01:36:20;5.67;;;2.77;;
8656;SDS011;4366;50.764;7.184;2023-03-21T01:41:33;3.40;;;2.47;;
8656;SDS011;4366;50.764;7.184;2023-03-21T01:47:01;6.10;;;2.80;;
8656;SDS011;4366;50.764;7.184;2023-03-21T01:52:44;2.93;;;2.70;;
8656;SDS011;4366;50.764;7.184;2023-03-21T01:57:57;4.97;;;2.63;;
8656;SDS011;4366;50.764;7.184;2023-03-21T02:03:22;4.07;;;2.70;;
8656;SDS011;4366;50.764;7.184;2023-03-21T02:08:54;6.60;;;2.60;;
8656;SDS011;4366;50.764;7.184;2023-03-21T02:13:55;4.23;;;2.70;;
8656;SDS011;4366;50.764;7.184;2023-03-21T02:47:04;6.33;;;3.03;;
8656;SDS011;4366;50.764;7.184;2023-03-21T02:52:25;5.87;;;2.77;;
8656;SDS011;4366;50.764;7.184;2023-03-21T02:57:42;6.43;;;2.80;;
8656;SDS011;4366;50.764;7.184;2023-03-21T03:02:46;2.93;;;2.50;;
8656;SDS011;4366;50.764;7.184;2023-03-21T03:13:14;5.00;;;3.27;;
8656;SDS011;4366;50.764;7.184;2023-03-21T03:18:26;3.17;;;2.67;;
8656;SDS011;4366;50.764;7.184;2023-03-21T03:23:47;6.30;;;3.00;;
8656;SDS011;4366;50.764;7.184;2023-03-21T03:28:53;3.07;;;2.33;;
8656;SDS011;4366;50.764;7.184;2023-03-21T03:33:59;2.90;;;2.57;;
8656;SDS011;4366;50.764;7.184;2023-03-21T03:39:05;6.47;;;2.57;;
8656;SDS011;4366;50.764;7.184;2023-03-21T03:44:09;5.07;;;3.00;;
8656;SDS011;4366;50.764;7.184;2023-03-21T03:49:20;5.50;;;2.80;;
8656;SDS011;4366;50.764;7.184;2023-03-21T03:54:27;7.77;;;2.73;;
8656;SDS011;4366;50.764;7.184;2023-03-21T03:59:35;4.13;;;2.63;;
8656;SDS011;4366;50.764;7.184;2023-03-21T04:04:47;4.83;;;2.93;;
8656;SDS011;4366;50.764;7.184;2023-03-21T04:09:53;3.87;;;2.53;;
8656;SDS011;4366;50.764;7.184;2023-03-21T04:14:55;5.27;;;2.83;;
8656;SDS011;4366;50.764;7.184;2023-03-21T04:20:11;5.57;;;3.17;;
8656;SDS011;4366;50.764;7.184;2023-03-21T04:25:27;3.77;;;2.63;;
8656;SDS011;4366;50.764;7.184;2023-03-21T04:30:36;4.23;;;2.50;;
8656;SDS011;4366;50.764;7.184;2023-03-21T04:35:46;4.47;;;2.83;;
8656;SDS011;4366;50.764;7.184;2023-03-21T04:40:48;4.80;;;2.73;;
8656;SDS011;4366;50.764;7.184;2023-03-21T04:45:50;5.37;;;2.97;;
8656;SDS011;4366;50.764;7.184;2023-03-21T04:50:53;5.60;;;3.07;;
8656;SDS011;4366;50.764;7.184;2023-03-21T04:55:54;4.60;;;2.60;;
8656;SDS011;4366;50.764;7.184;2023-03-21T05:00:58;5.63;;;2.80;;
8656;SDS011;4366;50.764;7.184;2023-03-21T05:06:02;3.73;;;2.50;;
8656;SDS011;4366;50.764;7.184;2023-03-21T05:11:04;3.47;;;2.87;;
8656;SDS011;4366;50.764;7.184;2023-03-21T05:16:06;4.40;;;3.13;;
8656;SDS011;4366;50.764;7.184;2023-03-21T05:21:08;7.00;;;3.73;;
8656;SDS011;4366;50.764;7.184;2023-03-21T05:26:14;5.53;;;3.60;;
8656;SDS011;4366;50.764;7.184;2023-03-21T05:31:25;3.20;;;2.90;;
8656;SDS011;4366;50.764;7.184;2023-03-21T05:36:37;4.50;;;3.20;;
8656;SDS011;4366;50.764;7.184;2023-03-21T05:41:42;4.17;;;2.73;;
8656;SDS011;4366;50.764;7.184;2023-03-21T05:46:44;6.20;;;3.23;;
8656;SDS011;4366;50.764;7.184;2023-03-21T05:51:46;3.50;;;2.87;;
8656;SDS011;4366;50.764;7.184;2023-03-21T05:56:48;5.73;;;3.00;;
8656;SDS011;4366;50.764;7.184;2023-03-21T06:02:00;4.60;;;2.90;;
8656;SDS011;4366;50.764;7.184;2023-03-21T06:07:02;4.15;;;3.05;;
8656;SDS011;4366;50.764;7.184;2023-03-21T06:12:06;4.82;;;3.50;;
8656;SDS011;4366;50.764;7.184;2023-03-21T06:17:24;5.07;;;3.13;;
8656;SDS011;4366;50.764;7.184;2023-03-21T06:22:31;4.07;;;2.80;;
8656;SDS011;4366;50.764;7.184;2023-03-21T06:27:36;6.73;;;3.07;;
8656;SDS011;4366;50.764;7.184;2023-03-21T06:32:40;3.53;;;2.80;;
8656;SDS011;4366;50.764;7.184;2023-03-21T06:37:46;5.30;;;3.20;;
8656;SDS011;4366;50.764;7.184;2023-03-21T06:42:50;9.07;;;3.50;;
8656;SDS011;4366;50.764;7.184;2023-03-21T06:47:52;4.57;;;3.50;;
8656;SDS011;4366;50.764;7.184;2023-03-21T06:53:07;6.33;;;3.33;;
8656;SDS011;4366;50.764;7.184;2023-03-21T06:58:26;6.23;;;2.97;;
8656;SDS011;4366;50.764;7.184;2023-03-21T07:03:28;8.83;;;3.13;;
8656;SDS011;4366;50.764;7.184;2023-03-21T07:08:34;5.63;;;3.50;;
8656;SDS011;4366;50.764;7.184;2023-03-21T07:13:36;6.27;;;3.60;;
8656;SDS011;4366;50.764;7.184;2023-03-21T07:18:38;8.53;;;3.23;;
8656;SDS011;4366;50.764;7.184;2023-03-21T07:23:39;7.03;;;3.30;;
8656;SDS011;4366;50.764;7.184;2023-03-21T07:28:41;9.63;;;3.57;;
8656;SDS011;4366;50.764;7.184;2023-03-21T07:33:43;5.47;;;3.40;;
8656;SDS011;4366;50.764;7.184;2023-03-21T07:38:45;4.53;;;3.03;;
8656;SDS011;4366;50.764;7.184;2023-03-21T07:43:49;8.37;;;3.60;;
8656;SDS011;4366;50.764;7.184;2023-03-21T07:48:52;6.23;;;3.40;;
8656;SDS011;4366;50.764;7.184;2023-03-21T07:53:53;7.23;;;3.60;;
8656;SDS011;4366;50.764;7.184;2023-03-21T07:58:55;6.90;;;3.33;;
8656;SDS011;4366;50.764;7.184;2023-03-21T08:03:57;4.10;;;3.40;;
8656;SDS011;4366;50.764;7.184;2023-03-21T08:08:58;3.47;;;2.93;;
8656;SDS011;4366;50.764;7.184;2023-03-21T08:14:01;5.80;;;3.33;;
8656;SDS011;4366;50.764;7.184;2023-03-21T08:19:03;5.53;;;3.10;;
8656;SDS011;4366;50.764;7.184;2023-03-21T08:24:05;5.23;;;3.47;;
8656;SDS011;4366;50.764;7.184;2023-03-21T08:29:07;6.50;;;3.97;;
8656;SDS011;4366;50.764;7.184;2023-03-21T08:34:09;6.90;;;3.60;;
8656;SDS011;4366;50.764;7.184;2023-03-21T08:39:11;4.97;;;3.70;;
8656;SDS011;4366;50.764;7.184;2023-03-21T08:44:13;8.43;;;4.80;;
8656;SDS011;4366;50.764;7.184;2023-03-21T08:49:15;5.70;;;3.70;;
8656;SDS011;4366;50.764;7.184;2023-03-21T08:54:21;5.37;;;4.03;;
8656;SDS011;4366;50.764;7.184;2023-03-21T08:59:23;6.07;;;3.57;;
8656;SDS011;4366;50.764;7.184;2023-03-21T09:04:24;5.47;;;3.30;;
8656;SDS011;4366;50.764;7.184;2023-03-21T09:09:27;4.50;;;3.00;;
8656;SDS011;4366;50.764;7.184;2023-03-21T09:14:29;4.20;;;3.27;;
8656;SDS011;4366;50.764;7.184;2023-03-21T09:24:39;6.37;;;3.40;;
8656;SDS011;4366;50.764;7.184;2023-03-21T09:29:42;6.20;;;3.57;;
8656;SDS011;4366;50.764;7.184;2023-03-21T09:34:45;6.30;;;3.20;;
8656;SDS011;4366;50.764;7.184;2023-03-21T09:39:49;4.70;;;3.33;;
8656;SDS011;4366;50.764;7.184;2023-03-21T09:45:01;4.13;;;3.07;;
8656;SDS011;4366;50.764;7.184;2023-03-21T09:50:29;9.03;;;3.63;;
8656;SDS011;4366;50.764;7.184;2023-03-21T09:55:34;7.00;;;3.07;;
8656;SDS011;4366;50.764;7.184;2023-03-21T10:00:39;5.37;;;3.00;;
8656;SDS011;4366;50.764;7.184;2023-03-21T10:05:43;5.73;;;2.87;;
8656;SDS011;4366;50.764;7.184;2023-03-21T10:10:50;4.50;;;3.07;;
8656;SDS011;4366;50.764;7.184;2023-03-21T10:15:55;6.07;;;3.17;;
8656;SDS011;4366;50.764;7.184;2023-03-21T10:21:01;4.67;;;2.93;;
8656;SDS011;4366;50.764;7.184;2023-03-21T10:26:04;4.33;;;3.03;;
8656;SDS011;4366;50.764;7.184;2023-03-21T10:31:07;5.23;;;3.60;;
8656;SDS011;4366;50.764;7.184;2023-03-21T10:41:19;5.80;;;3.33;;
8656;SDS011;4366;50.764;7.184;2023-03-21T10:46:21;3.33;;;2.93;;
8656;SDS011;4366;50.764;7.184;2023-03-21T10:51:31;4.37;;;2.90;;
8656;SDS011;4366;50.764;7.184;2023-03-21T10:56:36;5.87;;;3.20;;
8656;SDS011;4366;50.764;7.184;2023-03-21T11:01:40;4.23;;;2.93;;
8656;SDS011;4366;50.764;7.184;2023-03-21T11:06:45;6.17;;;3.57;;
8656;SDS011;4366;50.764;7.184;2023-03-21T11:12:34;5.73;;;3.27;;
8656;SDS011;4366;50.764;7.184;2023-03-21T11:17:37;4.63;;;2.90;;
8656;SDS011;4366;50.764;7.184;2023-03-21T11:22:40;4.77;;;3.13;;
8656;SDS011;4366;50.764;7.184;2023-03-21T11:27:47;4.83;;;3.53;;
8656;SDS011;4366;50.764;7.184;2023-03-21T11:33:01;3.53;;;2.80;;
8656;SDS011;4366;50.764;7.184;2023-03-21T11:38:04;5.67;;;3.70;;
8656;SDS011;4366;50.764;7.184;2023-03-21T11:43:24;3.90;;;2.70;;
8656;SDS011;4366;50.764;7.184;2023-03-21T11:48:28;3.93;;;3.10;;
8656;SDS011;4366;50.764;7.184;2023-03-21T11:53:35;4.50;;;2.63;;
8656;SDS011;4366;50.764;7.184;2023-03-21T12:09:33;5.03;;;3.70;;
8656;SDS011;4366;50.764;7.184;2023-03-21T12:15:13;3.27;;;2.70;;
8656;SDS011;4366;50.764;7.184;2023-03-21T12:25:43;3.90;;;2.60;;
8656;SDS011;4366;50.764;7.184;2023-03-21T12:47:21;3.87;;;3.03;;
8656;SDS011;4366;50.764;7.184;2023-03-21T12:52:26;4.60;;;3.03;;
8656;SDS011;4366;50.764;7.184;2023-03-21T12:57:32;4.33;;;3.30;;
8656;SDS011;4366;50.764;7.184;2023-03-21T13:13:06;2.93;;;2.67;;
8656;SDS011;4366;50.764;7.184;2023-03-21T13:23:18;4.53;;;3.10;;
8656;SDS011;4366;50.764;7.184;2023-03-21T13:28:25;3.27;;;3.00;;
8656;SDS011;4366;50.764;7.184;2023-03-21T13:33:29;5.67;;;3.00;;
8656;SDS011;4366;50.764;7.184;2023-03-21T13:38:31;2.90;;;2.37;;
8656;SDS011;4366;50.764;7.184;2023-03-21T13:59:09;4.30;;;3.00;;
8656;SDS011;4366;50.764;7.184;2023-03-21T14:04:14;3.13;;;2.83;;
8656;SDS011;4366;50.764;7.184;2023-03-21T14:14:46;3.67;;;2.83;;
8656;SDS011;4366;50.764;7.184;2023-03-21T14:19:54;4.20;;;2.53;;
8656;SDS011;4366;50.764;7.184;2023-03-21T14:24:58;4.90;;;2.70;;
8656;SDS011;4366;50.764;7.184;2023-03-21T14:30:03;3.37;;;2.50;;
8656;SDS011;4366;50.764;7.184;2023-03-21T14:35:08;2.13;;;2.03;;
8656;SDS011;4366;50.764;7.184;2023-03-21T14:40:20;3.90;;;2.50;;
8656;SDS011;4366;50.764;7.184;2023-03-21T14:45:27;3.70;;;2.50;;
8656;SDS011;4366;50.764;7.184;2023-03-21T14:50:38;2.53;;;2.37;;
8656;SDS011;4366;50.764;7.184;2023-03-21T14:55:42;2.30;;;2.10;;
8656;SDS011;4366;50.764;7.184;2023-03-21T15:00:47;2.77;;;2.20;;
8656;SDS011;4366;50.764;7.184;2023-03-21T15:05:56;2.67;;;2.27;;
8656;SDS011;4366;50.764;7.184;2023-03-21T15:16:07;3.23;;;2.50;;
8656;SDS011;4366;50.764;7.184;2023-03-21T15:21:12;3.30;;;2.47;;
8656;SDS011;4366;50.764;7.184;2023-03-21T15:26:18;5.10;;;2.57;;
8656;SDS011;4366;50.764;7.184;2023-03-21T15:31:22;3.13;;;2.73;;
8656;SDS011;4366;50.764;7.184;2023-03-21T15:36:26;4.33;;;2.90;;
8656;SDS011;4366;50.764;7.184;2023-03-21T15:41:30;2.73;;;2.53;;
8656;SDS011;4366;50.764;7.184;2023-03-21T15:46:43;3.27;;;2.60;;
8656;SDS011;4366;50.764;7.184;2023-03-21T15:51:49;4.33;;;2.60;;
8656;SDS011;4366;50.764;7.184;2023-03-21T15:57:03;2.60;;;2.37;;
8656;SDS011;4366;50.764;7.184;2023-03-21T16:02:19;2.50;;;2.30;;
8656;SDS011;4366;50.764;7.184;2023-03-21T16:07:23;2.60;;;2.17;;
8656;SDS011;4366;50.764;7.184;2023-03-21T16:12:26;3.37;;;2.20;;
8656;SDS011;4366;50.764;7.184;2023-03-21T16:17:34;3.70;;;2.30;;
8656;SDS011;4366;50.764;7.184;2023-03-21T16:22:40;2.43;;;2.20;;
8656;SDS011;4366;50.764;7.184;2023-03-21T16:27:41;2.83;;;2.30;;
8656;SDS011;4366;50.764;7.184;2023-03-21T16:32:43;3.70;;;2.30;;
8656;SDS011;4366;50.764;7.184;2023-03-21T16:37:45;4.10;;;2.73;;
8656;SDS011;4366;50.764;7.184;2023-03-21T16:42:48;2.40;;;2.20;;
8656;SDS011;4366;50.764;7.184;2023-03-21T16:47:51;3.20;;;2.23;;
8656;SDS011;4366;50.764;7.184;2023-03-21T16:52:53;2.83;;;2.10;;
8656;SDS011;4366;50.764;7.184;2023-03-21T16:57:55;3.70;;;2.30;;
8656;SDS011;4366;50.764;7.184;2023-03-21T17:03:01;6.63;;;3.10;;
8656;SDS011;4366;50.764;7.184;2023-03-21T17:08:13;3.60;;;2.17;;
8656;SDS011;4366;50.764;7.184;2023-03-21T17:13:16;4.23;;;2.47;;
8656;SDS011;4366;50.764;7.184;2023-03-21T17:18:18;2.80;;;2.53;;
8656;SDS011;4366;50.764;7.184;2023-03-21T17:23:19;3.60;;;2.30;;
8656;SDS011;4366;50.764;7.184;2023-03-21T17:28:21;3.77;;;2.40;;
8656;SDS011;4366;50.764;7.184;2023-03-21T17:33:22;3.10;;;2.50;;
8656;SDS011;4366;50.764;7.184;2023-03-21T17:38:26;3.67;;;2.57;;
8656;SDS011;4366;50.764;7.184;2023-03-21T17:43:28;2.33;;;2.13;;
8656;SDS011;4366;50.764;7.184;2023-03-21T17:48:29;3.43;;;2.47;;
8656;SDS011;4366;50.764;7.184;2023-03-21T17:53:31;2.80;;;2.50;;
8656;SDS011;4366;50.764;7.184;2023-03-21T17:58:33;2.63;;;2.43;;
8656;SDS011;4366;50.764;7.184;2023-03-21T18:03:34;4.23;;;2.77;;
8656;SDS011;4366;50.764;7.184;2023-03-21T18:08:36;3.00;;;2.60;;
8656;SDS011;4366;50.764;7.184;2023-03-21T18:13:38;3.77;;;2.77;;
8656;SDS011;4366;50.764;7.184;2023-03-21T18:18:40;4.10;;;2.70;;
8656;SDS011;4366;50.764;7.184;2023-03-21T18:23:43;3.30;;;3.00;;
8656;SDS011;4366;50.764;7.184;2023-03-21T18:28:44;4.00;;;3.50;;
8656;SDS011;4366;50.764;7.184;2023-03-21T18:33:48;3.30;;;3.00;;
8656;SDS011;4366;50.764;7.184;2023-03-21T18:38:51;4.60;;;3.00;;
8656;SDS011;4366;50.764;7.184;2023-03-21T18:43:52;4.57;;;3.03;;
8656;SDS011;4366;50.764;7.184;2023-03-21T18:49:14;3.30;;;3.00;;
8656;SDS011;4366;50.764;7.184;2023-03-21T18:54:36;3.80;;;3.00;;
8656;SDS011;4366;50.764;7.184;2023-03-21T18:59:39;4.77;;;2.93;;
8656;SDS011;4366;50.764;7.184;2023-03-21T19:04:41;3.40;;;2.90;;
8656;SDS011;4366;50.764;7.184;2023-03-21T19:09:43;3.83;;;3.00;;
8656;SDS011;4366;50.764;7.184;2023-03-21T19:15:06;4.97;;;2.60;;
8656;SDS011;4366;50.764;7.184;2023-03-21T19:20:08;4.40;;;3.40;;
8656;SDS011;4366;50.764;7.184;2023-03-21T19:25:12;2.87;;;2.60;;
8656;SDS011;4366;50.764;7.184;2023-03-21T19:30:16;3.10;;;2.83;;
8656;SDS011;4366;50.764;7.184;2023-03-21T19:35:18;3.70;;;2.60;;
8656;SDS011;4366;50.764;7.184;2023-03-21T19:40:19;5.13;;;3.40;;
8656;SDS011;4366;50.764;7.184;2023-03-21T19:45:21;4.13;;;3.17;;
8656;SDS011;4366;50.764;7.184;2023-03-21T19:50:23;3.93;;;3.23;;
8656;SDS011;4366;50.764;7.184;2023-03-21T19:55:49;3.50;;;2.97;;
8656;SDS011;4366;50.764;7.184;2023-03-21T20:00:52;4.33;;;3.60;;
8656;SDS011;4366;50.764;7.184;2023-03-21T20:06:04;4.27;;;2.97;;
8656;SDS011;4366;50.764;7.184;2023-03-21T20:11:07;3.13;;;2.90;;
8656;SDS011;4366;50.764;7.184;2023-03-21T20:16:08;5.57;;;2.80;;
8656;SDS011;4366;50.764;7.184;2023-03-21T20:21:11;3.10;;;2.70;;
8656;SDS011;4366;50.764;7.184;2023-03-21T20:26:18;3.27;;;2.80;;
8656;SDS011;4366;50.764;7.184;2023-03-21T20:31:21;3.43;;;2.97;;
8656;SDS011;4366;50.764;7.184;2023-03-21T20:36:24;3.10;;;2.53;;
8656;SDS011;4366;50.764;7.184;2023-03-21T20:41:41;4.47;;;3.17;;
8656;SDS011;4366;50.764;7.184;2023-03-21T20:46:43;3.17;;;2.80;;
8656;SDS011;4366;50.764;7.184;2023-03-21T20:51:48;3.60;;;2.50;;
8656;SDS011;4366;50.764;7.184;2023-03-21T20:57:10;3.10;;;2.80;;
8656;SDS011;4366;50.764;7.184;2023-03-21T21:02:12;3.83;;;2.50;;
8656;SDS011;4366;50.764;7.184;2023-03-21T21:07:18;3.50;;;2.40;;
8656;SDS011;4366;50.764;7.184;2023-03-21T21:12:22;3.67;;;2.40;;
8656;SDS011;4366;50.764;7.184;2023-03-21T21:17:27;3.73;;;2.53;;
8656;SDS011;4366;50.764;7.184;2023-03-21T21:22:51;2.87;;;2.43;;
8656;SDS011;4366;50.764;7.184;2023-03-21T21:28:00;3.47;;;2.47;;
8656;SDS011;4366;50.764;7.184;2023-03-21T21:33:02;2.80;;;2.50;;
8656;SDS011;4366;50.764;7.184;2023-03-21T21:38:05;4.10;;;2.60;;
8656;SDS011;4366;50.764;7.184;2023-03-21T21:43:07;3.10;;;2.60;;
8656;SDS011;4366;50.764;7.184;2023-03-21T21:48:09;3.20;;;2.40;;
8656;SDS011;4366;50.764;7.184;2023-03-21T21:53:12;2.47;;;2.10;;
8656;SDS011;4366;50.764;7.184;2023-03-21T21:58:18;3.60;;;2.33;;
8656;SDS011;4366;50.764;7.184;2023-03-21T22:03:21;3.10;;;2.40;;
8656;SDS011;4366;50.764;7.184;2023-03-21T22:08:23;3.37;;;2.70;;
8656;SDS011;4366;50.764;7.184;2023-03-21T22:13:25;2.90;;;2.30;;
8656;SDS011;4366;50.764;7.184;2023-03-21T22:18:26;3.00;;;2.20;;
8656;SDS011;4366;50.764;7.184;2023-03-21T22:23:28;2.60;;;2.40;;
8656;SDS011;4366;50.764;7.184;2023-03-21T22:28:30;3.00;;;2.37;;
8656;SDS011;4366;50.764;7.184;2023-03-21T22:33:31;3.23;;;2.53;;
8656;SDS011;4366;50.764;7.184;2023-03-21T22:38:33;2.63;;;2.47;;
8656;SDS011;4366;50.764;7.184;2023-03-21T22:43:37;4.23;;;2.70;;
8656;SDS011;4366;50.764;7.184;2023-03-21T22:48:38;2.80;;;2.60;;
8656;SDS011;4366;50.764;7.184;2023-03-21T22:53:40;2.80;;;2.53;;
8656;SDS011;4366;50.764;7.184;2023-03-21T22:58:42;4.30;;;3.30;;
8656;SDS011;4366;50.764;7.184;2023-03-21T23:03:44;3.50;;;2.60;;
8656;SDS011;4366;50.764;7.184;2023-03-21T23:08:45;5.27;;;2.57;;
8656;SDS011;4366;50.764;7.184;2023-03-21T23:13:47;3.07;;;2.77;;
8656;SDS011;4366;50.764;7.184;2023-03-21T23:19:02;6.30;;;3.60;;
8656;SDS011;4366;50.764;7.184;2023-03-21T23:24:05;3.43;;;2.87;;
8656;SDS011;4366;50.764;7.184;2023-03-21T23:29:08;4.00;;;3.17;;
8656;SDS011;4366;50.764;7.184;2023-03-21T23:34:10;3.87;;;3.20;;
8656;SDS011;4366;50.764;7.184;2023-03-21T23:39:12;4.03;;;3.33;;
8656;SDS011;4366;50.764;7.184;2023-03-21T23:44:14;3.77;;;3.27;;
8656;SDS011;4366;50.764;7.184;2023-03-21T23:49:16;4.90;;;3.20;;
8656;SDS011;4366;50.764;7.184;2023-03-21T23:54:18;3.83;;;3.43;;
8656;SDS011;4366;50.764;7.184;2023-03-21T23:59:20;5.73;;;3.50;;
